Time,TemperatureF,DewpointF,PressureIn,WindDirection,WindDirectionDegrees,WindSpeedMPH,WindSpeedGustMPH,Humidity,HourlyPrecipIn,Conditions,Clouds,dailyrainin,SoftwareType,DateUTC
2013-11-08 00:01:00,41.9,36.3,29.73,NNW,337,1.7,11.8,81,0.00,,,0.00,WUHU21636XXSP,2013-11-08 05:01:00,
2013-11-08 00:06:00,41.9,36.3,29.73,NNW,337,0.0,1.7,81,0.00,,,0.00,WUHU21636XXSP,2013-11-08 05:06:00,
2013-11-08 00:11:00,42.1,36.9,29.73,NNW,337,0.0,1.7,82,0.00,,,0.00,WUHU21636XXSP,2013-11-08 05:11:00,
2013-11-08 00:16:00,41.9,37.0,29.73,NNW,337,0.0,0.0,83,0.00,,,0.00,WUHU21636XXSP,2013-11-08 05:16:00,
2013-11-08 00:21:00,41.9,37.0,29.73,WNW,292,2.2,2.2,83,0.00,,,0.00,WUHU21636XXSP,2013-11-08 05:21:00,
2013-11-08 00:26:00,42.1,35.6,29.73,NW,315,3.3,3.3,78,0.00,,,0.00,WUHU21636XXSP,2013-11-08 05:26:00,
2013-11-08 00:31:00,42.1,35.6,29.73,West,270,1.1,3.3,76,0.00,,,0.00,WUHU21636XXSP,2013-11-08 05:31:00,
2013-11-08 00:36:00,41.9,34.2,29.73,NW,308,1.1,6.7,74,0.00,,,0.00,WUHU21636XXSP,2013-11-08 05:36:00,
2013-11-08 00:41:00,41.7,34.3,29.73,NW,315,0.0,6.7,74,0.00,,,0.00,WUHU21636XXSP,2013-11-08 05:41:00,
2013-11-08 00:46:00,41.7,34.3,29.73,NW,315,2.6,2.6,75,0.00,,,0.00,WUHU21636XXSP,2013-11-08 05:46:00,
2013-11-08 00:51:00,41.7,34.3,29.73,WNW,292,0.0,2.6,74,0.00,,,0.00,WUHU21636XXSP,2013-11-08 05:51:00,
2013-11-08 00:56:00,41.7,33.6,29.73,NW,317,1.6,9.6,73,0.00,,,0.00,WUHU21636XXSP,2013-11-08 05:56:00,
2013-11-08 01:01:00,41.4,34.0,29.73,NNW,337,0.0,9.6,75,0.00,,,0.00,WUHU21636XXSP,2013-11-08 06:01:00,
2013-11-08 01:06:00,41.4,34.0,29.73,NW,315,0.0,0.2,73,0.00,,,0.00,WUHU21636XXSP,2013-11-08 06:06:00,
2013-11-08 01:11:00,41.2,33.4,29.73,NW,315,2.6,2.6,74,0.00,,,0.00,WUHU21636XXSP,2013-11-08 06:11:00,
2013-11-08 01:16:00,41.2,33.4,29.74,NW,315,0.0,2.6,73,0.00,,,0.00,WUHU21636XXSP,2013-11-08 06:16:00,
2013-11-08 01:21:00,41.2,33.4,29.74,NNW,337,0.0,2.4,73,0.00,,,0.00,WUHU21636XXSP,2013-11-08 06:21:00,
2013-11-08 01:26:00,41.2,33.4,29.74,WNW,292,2.0,2.6,72,0.00,,,0.00,WUHU21636XXSP,2013-11-08 06:26:00,
2013-11-08 01:31:00,41.2,33.4,29.74,NW,315,2.9,2.9,71,0.00,,,0.00,WUHU21636XXSP,2013-11-08 06:31:00,
2013-11-08 01:36:00,41.2,33.4,29.75,NW,315,0.0,2.9,72,0.00,,,0.00,WUHU21636XXSP,2013-11-08 06:36:00,
2013-11-08 01:41:00,41.2,33.4,29.75,NW,315,0.0,0.0,72,0.00,,,0.00,WUHU21636XXSP,2013-11-08 06:41:00,
2013-11-08 01:46:00,40.8,32.0,29.75,NW,315,0.0,0.0,71,0.00,,,0.00,WUHU21636XXSP,2013-11-08 06:46:00,
2013-11-08 01:51:00,40.8,32.4,29.75,NW,315,4.0,4.0,72,0.00,,,0.00,WUHU21636XXSP,2013-11-08 06:51:00,
2013-11-08 01:56:00,40.8,32.0,29.75,WNW,292,0.0,4.0,71,0.00,,,0.00,WUHU21636XXSP,2013-11-08 06:56:00,
2013-11-08 02:01:00,40.8,31.3,29.75,NW,315,4.6,4.6,69,0.00,,,0.00,WUHU21636XXSP,2013-11-08 07:01:00,
2013-11-08 02:06:00,40.6,31.6,29.75,NW,315,0.0,4.6,70,0.00,,,0.00,WUHU21636XXSP,2013-11-08 07:06:00,
2013-11-08 02:11:00,40.6,31.6,29.75,NW,315,0.0,4.6,69,0.00,,,0.00,WUHU21636XXSP,2013-11-08 07:11:00,
2013-11-08 02:16:00,40.3,30.7,29.75,WNW,292,0.0,0.0,69,0.00,,,0.00,WUHU21636XXSP,2013-11-08 07:16:00,
2013-11-08 02:21:00,40.1,31.1,29.75,NNW,337,0.0,0.0,70,0.00,,,0.00,WUHU21636XXSP,2013-11-08 07:21:00,
2013-11-08 02:26:00,39.7,30.9,29.75,WNW,292,1.3,1.3,71,0.00,,,0.00,WUHU21636XXSP,2013-11-08 07:26:00,
2013-11-08 02:31:00,39.7,30.9,29.75,WNW,292,1.7,1.7,69,0.00,,,0.00,WUHU21636XXSP,2013-11-08 07:31:00,
2013-11-08 02:36:00,39.4,30.4,29.74,NW,315,0.0,3.8,70,0.00,,,0.00,WUHU21636XXSP,2013-11-08 07:36:00,
2013-11-08 02:41:00,39.4,30.4,29.75,NW,315,1.1,3.8,69,0.00,,,0.00,WUHU21636XXSP,2013-11-08 07:41:00,
2013-11-08 02:46:00,39.2,29.3,29.75,WNW,292,0.0,1.1,68,0.00,,,0.00,WUHU21636XXSP,2013-11-08 07:46:00,
2013-11-08 02:51:00,38.8,29.8,29.74,NNW,337,0.0,1.1,70,0.00,,,0.00,WUHU21636XXSP,2013-11-08 07:51:00,
2013-11-08 02:56:00,38.5,29.5,29.75,NNW,337,0.0,0.0,70,0.00,,,0.00,WUHU21636XXSP,2013-11-08 07:56:00,
2013-11-08 03:01:00,38.1,29.5,29.75,WNW,292,1.5,1.5,71,0.00,,,0.00,WUHU21636XXSP,2013-11-08 08:01:00,
2013-11-08 03:06:00,37.6,29.3,29.75,NW,315,0.0,1.5,72,0.00,,,0.00,WUHU21636XXSP,2013-11-08 08:06:00,
2013-11-08 03:11:00,37.2,28.9,29.75,NW,315,0.0,0.0,72,0.00,,,0.00,WUHU21636XXSP,2013-11-08 08:11:00,
2013-11-08 03:16:00,37.2,29.3,29.75,NW,315,0.0,0.0,73,0.00,,,0.00,WUHU21636XXSP,2013-11-08 08:16:00,
2013-11-08 03:21:00,37.2,29.3,29.75,NW,315,0.0,0.0,72,0.00,,,0.00,WUHU21636XXSP,2013-11-08 08:21:00,
2013-11-08 03:26:00,37.6,28.9,29.75,West,270,0.0,0.0,71,0.00,,,0.00,WUHU21636XXSP,2013-11-08 08:26:00,
2013-11-08 03:31:00,37.6,28.9,29.75,NW,315,0.0,0.0,72,0.00,,,0.00,WUHU21636XXSP,2013-11-08 08:31:00,
2013-11-08 03:36:00,37.0,28.8,29.75,West,270,0.0,0.0,73,0.00,,,0.00,WUHU21636XXSP,2013-11-08 08:36:00,
2013-11-08 03:41:00,37.0,28.8,29.75,WNW,292,0.0,0.0,73,0.00,,,0.00,WUHU21636XXSP,2013-11-08 08:41:00,
2013-11-08 03:46:00,36.7,28.4,29.75,WNW,292,0.0,0.0,72,0.00,,,0.00,WUHU21636XXSP,2013-11-08 08:46:00,
2013-11-08 03:51:00,36.5,28.2,29.76,WNW,292,0.0,0.0,72,0.00,,,0.00,WUHU21636XXSP,2013-11-08 08:51:00,
2013-11-08 03:56:00,36.7,28.4,29.76,SSE,157,0.0,0.0,73,0.00,,,0.00,WUHU21636XXSP,2013-11-08 08:56:00,
2013-11-08 04:01:00,36.7,28.4,29.76,WNW,292,0.0,0.0,72,0.00,,,0.00,WUHU21636XXSP,2013-11-08 09:01:00,
2013-11-08 04:06:00,36.7,28.4,29.76,West,270,0.0,0.0,72,0.00,,,0.00,WUHU21636XXSP,2013-11-08 09:06:00,
2013-11-08 04:11:00,36.5,28.2,29.76,West,270,0.0,0.0,72,0.00,,,0.00,WUHU21636XXSP,2013-11-08 09:11:00,
2013-11-08 04:16:00,36.7,28.4,29.76,WNW,292,0.0,0.0,72,0.00,,,0.00,WUHU21636XXSP,2013-11-08 09:16:00,
2013-11-08 04:21:00,36.7,28.4,29.77,WNW,292,0.0,0.0,71,0.00,,,0.00,WUHU21636XXSP,2013-11-08 09:21:00,
2013-11-08 04:26:00,36.5,28.2,29.77,WNW,292,0.0,0.0,71,0.00,,,0.00,WUHU21636XXSP,2013-11-08 09:26:00,
2013-11-08 04:31:00,36.5,27.9,29.77,WNW,292,0.0,0.0,71,0.00,,,0.00,WUHU21636XXSP,2013-11-08 09:31:00,
2013-11-08 04:36:00,36.3,28.0,29.77,WNW,292,0.0,0.0,72,0.00,,,0.00,WUHU21636XXSP,2013-11-08 09:36:00,
2013-11-08 04:41:00,36.1,27.9,29.77,WNW,292,0.0,0.0,72,0.00,,,0.00,WUHU21636XXSP,2013-11-08 09:41:00,
2013-11-08 04:46:00,36.1,27.9,29.77,WNW,292,1.3,1.3,72,0.00,,,0.00,WUHU21636XXSP,2013-11-08 09:46:00,
2013-11-08 04:51:00,36.0,27.7,29.77,WNW,292,0.0,1.3,72,0.00,,,0.00,WUHU21636XXSP,2013-11-08 09:51:00,
2013-11-08 04:56:00,35.6,27.7,29.77,WNW,292,0.0,1.3,73,0.00,,,0.00,WUHU21636XXSP,2013-11-08 09:56:00,
2013-11-08 05:01:00,35.2,27.7,29.77,West,270,2.4,2.4,74,0.00,,,0.00,WUHU21636XXSP,2013-11-08 10:01:00,
2013-11-08 05:06:00,35.2,27.7,29.77,WNW,292,0.0,2.4,74,0.00,,,0.00,WUHU21636XXSP,2013-11-08 10:06:00,
2013-11-08 05:11:00,35.2,27.7,29.77,WNW,292,0.0,0.0,74,0.00,,,0.00,WUHU21636XXSP,2013-11-08 10:11:00,
2013-11-08 05:16:00,35.2,27.7,29.77,WNW,292,0.0,0.0,73,0.00,,,0.00,WUHU21636XXSP,2013-11-08 10:16:00,
2013-11-08 05:21:00,35.2,27.7,29.77,WNW,292,0.0,0.0,73,0.00,,,0.00,WUHU21636XXSP,2013-11-08 10:21:00,
2013-11-08 05:26:00,35.4,27.1,29.77,WNW,292,0.0,0.0,72,0.00,,,0.00,WUHU21636XXSP,2013-11-08 10:26:00,
2013-11-08 05:31:00,35.6,27.7,29.78,WNW,292,0.0,0.0,73,0.00,,,0.00,WUHU21636XXSP,2013-11-08 10:31:00,
2013-11-08 05:36:00,35.4,27.5,29.78,West,270,0.0,0.0,73,0.00,,,0.00,WUHU21636XXSP,2013-11-08 10:36:00,
2013-11-08 05:41:00,35.4,27.1,29.78,West,270,0.0,0.0,73,0.00,,,0.00,WUHU21636XXSP,2013-11-08 10:41:00,
2013-11-08 05:46:00,35.4,27.1,29.78,West,270,0.0,0.0,73,0.00,,,0.00,WUHU21636XXSP,2013-11-08 10:46:00,
2013-11-08 05:51:00,35.4,27.1,29.78,West,270,0.0,0.0,73,0.00,,,0.00,WUHU21636XXSP,2013-11-08 10:51:00,
2013-11-08 05:56:00,35.2,27.3,29.78,WNW,292,0.0,0.0,74,0.00,,,0.00,WUHU21636XXSP,2013-11-08 10:56:00,
2013-11-08 06:01:00,35.2,27.3,29.78,WNW,292,0.0,0.0,74,0.00,,,0.00,WUHU21636XXSP,2013-11-08 11:01:00,
2013-11-08 06:06:00,35.2,27.3,29.78,WNW,292,0.0,0.0,74,0.00,,,0.00,WUHU21636XXSP,2013-11-08 11:06:00,
2013-11-08 06:11:00,34.7,27.5,29.78,West,270,0.0,0.0,75,0.00,,,0.00,WUHU21636XXSP,2013-11-08 11:11:00,
2013-11-08 06:16:00,34.9,27.7,29.79,WNW,292,0.0,0.0,75,0.00,,,0.00,WUHU21636XXSP,2013-11-08 11:16:00,
2013-11-08 06:21:00,34.9,27.7,29.79,WNW,292,1.3,1.3,75,0.00,,,0.00,WUHU21636XXSP,2013-11-08 11:21:00,
2013-11-08 06:26:00,34.9,27.7,29.79,WNW,292,0.0,1.3,76,0.00,,,0.00,WUHU21636XXSP,2013-11-08 11:26:00,
2013-11-08 06:31:00,35.2,28.0,29.79,West,270,1.1,1.3,75,0.00,,,0.00,WUHU21636XXSP,2013-11-08 11:31:00,
2013-11-08 06:36:00,35.2,28.0,29.80,WNW,292,0.0,1.1,75,0.00,,,0.00,WUHU21636XXSP,2013-11-08 11:36:00,
2013-11-08 06:41:00,35.1,27.9,29.80,WNW,292,0.0,0.0,75,0.00,,,0.00,WUHU21636XXSP,2013-11-08 11:41:00,
2013-11-08 06:46:00,34.9,27.9,29.80,WSW,247,0.0,0.0,76,0.00,,,0.00,WUHU21636XXSP,2013-11-08 11:46:00,
2013-11-08 06:51:00,35.1,28.0,29.80,West,270,0.0,0.0,76,0.00,,,0.00,WUHU21636XXSP,2013-11-08 11:51:00,
2013-11-08 06:56:00,34.9,27.9,29.80,West,270,0.0,0.0,76,0.00,,,0.00,WUHU21636XXSP,2013-11-08 11:56:00,
2013-11-08 07:01:00,34.9,27.9,29.80,West,270,0.0,0.0,77,0.00,,,0.00,WUHU21636XXSP,2013-11-08 12:01:00,
2013-11-08 07:06:00,35.2,28.6,29.81,West,270,0.0,0.0,77,0.00,,,0.00,WUHU21636XXSP,2013-11-08 12:06:00,
2013-11-08 07:11:00,35.2,28.6,29.81,West,270,0.0,0.0,77,0.00,,,0.00,WUHU21636XXSP,2013-11-08 12:11:00,
2013-11-08 07:16:00,35.4,28.4,29.81,NW,315,0.0,0.0,76,0.00,,,0.00,WUHU21636XXSP,2013-11-08 12:16:00,
2013-11-08 07:21:00,36.1,29.1,29.81,West,270,0.0,0.0,76,0.00,,,0.00,WUHU21636XXSP,2013-11-08 12:21:00,
2013-11-08 07:26:00,36.5,29.5,29.81,WNW,292,0.0,0.0,76,0.00,,,0.00,WUHU21636XXSP,2013-11-08 12:26:00,
2013-11-08 07:31:00,37.6,30.6,29.81,West,270,4.2,4.2,76,0.00,,,0.00,WUHU21636XXSP,2013-11-08 12:31:00,
2013-11-08 07:36:00,37.8,31.5,29.81,WNW,292,1.3,4.2,78,0.00,,,0.00,WUHU21636XXSP,2013-11-08 12:36:00,
2013-11-08 07:41:00,38.1,31.5,29.81,WNW,292,0.2,1.3,77,0.00,,,0.00,WUHU21636XXSP,2013-11-08 12:41:00,
2013-11-08 07:46:00,38.3,32.0,29.82,WNW,292,2.0,2.0,77,0.00,,,0.00,WUHU21636XXSP,2013-11-08 12:46:00,
2013-11-08 07:51:00,38.5,32.2,29.82,WNW,292,0.0,2.0,79,0.00,,,0.00,WUHU21636XXSP,2013-11-08 12:51:00,
2013-11-08 07:56:00,38.8,32.9,29.82,NW,315,6.0,7.8,79,0.00,,,0.00,WUHU21636XXSP,2013-11-08 12:56:00,
2013-11-08 08:01:00,39.0,33.1,29.82,WNW,292,2.3,8.5,79,0.00,,,0.00,WUHU21636XXSP,2013-11-08 13:01:00,
2013-11-08 08:06:00,39.0,33.1,29.82,West,270,0.8,8.5,80,0.00,,,0.00,WUHU21636XXSP,2013-11-08 13:06:00,
2013-11-08 08:11:00,39.6,33.8,29.82,NW,315,0.0,2.2,80,0.00,,,0.00,WUHU21636XXSP,2013-11-08 13:11:00,
2013-11-08 08:16:00,39.7,34.3,29.82,West,270,4.6,4.6,81,0.00,,,0.00,WUHU21636XXSP,2013-11-08 13:16:00,
2013-11-08 08:21:00,39.7,34.0,29.82,NW,315,0.6,7.1,80,0.00,,,0.00,WUHU21636XXSP,2013-11-08 13:21:00,
2013-11-08 08:26:00,39.9,34.2,29.82,WNW,292,0.0,7.1,80,0.00,,,0.00,WUHU21636XXSP,2013-11-08 13:26:00,
2013-11-08 08:31:00,40.1,34.3,29.82,WSW,247,2.6,2.6,80,0.00,,,0.00,WUHU21636XXSP,2013-11-08 13:31:00,
2013-11-08 08:36:00,40.1,34.3,29.83,WNW,292,0.8,2.6,80,0.00,,,0.00,WUHU21636XXSP,2013-11-08 13:36:00,
2013-11-08 08:41:00,40.3,34.5,29.82,NW,315,1.3,1.3,80,0.00,,,0.00,WUHU21636XXSP,2013-11-08 13:41:00,
2013-11-08 08:46:00,40.3,34.5,29.82,SW,225,0.0,1.3,78,0.00,,,0.00,WUHU21636XXSP,2013-11-08 13:46:00,
2013-11-08 08:51:00,40.5,33.6,29.82,SSW,202,0.0,0.0,77,0.00,,,0.00,WUHU21636XXSP,2013-11-08 13:51:00,
2013-11-08 08:56:00,40.5,33.6,29.82,WNW,292,0.0,0.0,76,0.00,,,0.00,WUHU21636XXSP,2013-11-08 13:56:00,
2013-11-08 09:01:00,40.6,33.4,29.83,NW,315,0.0,0.0,76,0.00,,,0.00,WUHU21636XXSP,2013-11-08 14:01:00,
2013-11-08 09:06:00,40.6,33.4,29.83,SSE,157,1.1,1.1,75,0.00,,,0.00,WUHU21636XXSP,2013-11-08 14:06:00,
2013-11-08 09:11:00,40.8,33.4,29.82,WNW,292,0.0,1.1,75,0.00,,,0.00,WUHU21636XXSP,2013-11-08 14:11:00,
2013-11-08 09:16:00,40.6,33.3,29.82,WNW,292,0.0,0.0,74,0.00,,,0.00,WUHU21636XXSP,2013-11-08 14:16:00,
2013-11-08 09:21:00,40.8,32.7,29.82,WNW,292,0.0,0.0,73,0.00,,,0.00,WUHU21636XXSP,2013-11-08 14:21:00,
2013-11-08 09:26:00,40.8,32.7,29.83,South,180,0.0,0.0,74,0.00,,,0.00,WUHU21636XXSP,2013-11-08 14:26:00,
2013-11-08 09:31:00,41.2,33.8,29.82,NW,315,0.0,0.0,75,0.00,,,0.00,WUHU21636XXSP,2013-11-08 14:31:00,
2013-11-08 09:36:00,41.7,34.5,29.83,West,270,2.4,2.4,76,0.00,,,0.00,WUHU21636XXSP,2013-11-08 14:36:00,
2013-11-08 09:41:00,42.1,33.6,29.83,NW,315,0.2,2.4,72,0.00,,,0.00,WUHU21636XXSP,2013-11-08 14:41:00,
2013-11-08 09:46:00,42.4,34.7,29.82,WNW,292,0.6,3.3,74,0.00,,,0.00,WUHU21636XXSP,2013-11-08 14:46:00,
2013-11-08 09:51:00,43.0,34.2,29.82,NW,315,0.0,3.3,71,0.00,,,0.00,WUHU21636XXSP,2013-11-08 14:51:00,
2013-11-08 09:56:00,43.5,35.1,29.82,NW,315,2.4,2.4,72,0.00,,,0.00,WUHU21636XXSP,2013-11-08 14:56:00,
2013-11-08 10:01:00,44.4,34.0,29.82,WSW,247,1.3,2.4,67,0.00,,,0.00,WUHU21636XXSP,2013-11-08 15:01:00,
2013-11-08 10:06:00,44.8,35.1,29.82,WNW,292,0.0,2.4,69,0.00,,,0.00,WUHU21636XXSP,2013-11-08 15:06:00,
2013-11-08 10:11:00,45.1,34.7,29.82,West,270,0.0,0.0,67,0.00,,,0.00,WUHU21636XXSP,2013-11-08 15:11:00,
2013-11-08 10:16:00,45.3,35.6,29.82,NW,315,1.7,1.7,69,0.00,,,0.00,WUHU21636XXSP,2013-11-08 15:16:00,
2013-11-08 10:21:00,45.7,35.2,29.82,West,270,0.0,1.7,65,0.00,,,0.00,WUHU21636XXSP,2013-11-08 15:21:00,
2013-11-08 10:26:00,46.0,34.3,29.82,West,270,3.5,3.5,64,0.00,,,0.00,WUHU21636XXSP,2013-11-08 15:26:00,
2013-11-08 10:31:00,45.7,34.2,29.82,NW,323,3.3,8.7,65,0.00,,,0.00,WUHU21636XXSP,2013-11-08 15:31:00,
2013-11-08 10:36:00,46.0,35.6,29.82,WNW,292,0.0,8.7,67,0.00,,,0.00,WUHU21636XXSP,2013-11-08 15:36:00,
2013-11-08 10:41:00,46.4,35.2,29.82,NW,315,0.8,9.6,65,0.00,,,0.00,WUHU21636XXSP,2013-11-08 15:41:00,
2013-11-08 10:46:00,45.7,33.6,29.83,WNW,290,3.9,9.6,63,0.00,,,0.00,WUHU21636XXSP,2013-11-08 15:46:00,
2013-11-08 10:51:00,45.1,34.3,29.82,NW,315,0.0,9.1,66,0.00,,,0.00,WUHU21636XXSP,2013-11-08 15:51:00,
2013-11-08 10:56:00,44.6,34.2,29.83,WNW,292,0.0,3.1,67,0.00,,,0.00,WUHU21636XXSP,2013-11-08 15:56:00,
2013-11-08 11:01:00,44.2,33.8,29.83,NNW,337,2.6,2.6,67,0.00,,,0.00,WUHU21636XXSP,2013-11-08 16:01:00,
2013-11-08 11:06:00,44.2,33.8,29.83,NNW,337,0.0,2.6,67,0.00,,,0.00,WUHU21636XXSP,2013-11-08 16:06:00,
2013-11-08 11:11:00,44.2,33.8,29.83,WNW,292,2.0,2.6,68,0.00,,,0.00,WUHU21636XXSP,2013-11-08 16:11:00,
2013-11-08 11:16:00,44.2,33.4,29.83,WNW,288,4.3,6.9,66,0.00,,,0.00,WUHU21636XXSP,2013-11-08 16:16:00,
2013-11-08 11:21:00,44.2,33.8,29.83,NNW,337,4.4,7.6,67,0.00,,,0.00,WUHU21636XXSP,2013-11-08 16:21:00,
2013-11-08 11:26:00,46.9,34.5,29.83,North,0,7.1,17.6,62,0.00,,,0.00,WUHU21636XXSP,2013-11-08 16:26:00,
2013-11-08 11:31:00,47.8,35.4,29.82,NNW,337,2.4,17.6,62,0.00,,,0.00,WUHU21636XXSP,2013-11-08 16:31:00,
2013-11-08 11:36:00,46.4,33.3,29.82,NW,313,3.2,13.1,60,0.00,,,0.00,WUHU21636XXSP,2013-11-08 16:36:00,
2013-11-08 11:41:00,45.1,32.0,29.82,NW,315,4.0,10.9,60,0.00,,,0.00,WUHU21636XXSP,2013-11-08 16:41:00,
2013-11-08 11:46:00,45.7,33.3,29.82,NNW,327,4.5,16.5,62,0.00,,,0.00,WUHU21636XXSP,2013-11-08 16:46:00,
2013-11-08 11:51:00,45.7,32.0,29.82,NW,315,6.9,16.5,59,0.00,,,0.00,WUHU21636XXSP,2013-11-08 16:51:00,
2013-11-08 11:56:00,45.0,31.5,29.82,NW,310,4.3,15.4,59,0.00,,,0.00,WUHU21636XXSP,2013-11-08 16:56:00,
2013-11-08 12:01:00,44.4,32.2,29.82,NNW,330,4.6,14.3,62,0.00,,,0.00,WUHU21636XXSP,2013-11-08 17:01:00,
2013-11-08 12:06:00,44.8,31.6,29.82,NW,315,2.8,14.3,60,0.00,,,0.00,WUHU21636XXSP,2013-11-08 17:06:00,
2013-11-08 12:11:00,47.3,34.2,29.82,NNW,327,2.9,11.4,60,0.00,,,0.00,WUHU21636XXSP,2013-11-08 17:11:00,
2013-11-08 12:16:00,48.6,32.9,29.82,NW,315,4.6,12.3,55,0.00,,,0.00,WUHU21636XXSP,2013-11-08 17:16:00,
2013-11-08 12:21:00,48.9,34.7,29.82,NNW,327,4.2,12.3,58,0.00,,,0.00,WUHU21636XXSP,2013-11-08 17:21:00,
2013-11-08 12:26:00,49.6,34.5,29.82,NW,315,2.0,11.6,56,0.00,,,0.00,WUHU21636XXSP,2013-11-08 17:26:00,
2013-11-08 12:31:00,46.9,31.8,29.82,West,279,5.4,12.7,56,0.00,,,0.00,WUHU21636XXSP,2013-11-08 17:31:00,
2013-11-08 12:36:00,46.0,32.0,29.82,WNW,292,1.5,12.7,58,0.00,,,0.00,WUHU21636XXSP,2013-11-08 17:36:00,
2013-11-08 12:41:00,45.9,32.7,29.81,NNW,337,2.9,9.3,60,0.00,,,0.00,WUHU21636XXSP,2013-11-08 17:41:00,
2013-11-08 12:46:00,45.5,32.0,29.82,NW,315,0.4,9.6,61,0.00,,,0.00,WUHU21636XXSP,2013-11-08 17:46:00,
2013-11-08 12:51:00,46.9,34.2,29.82,NNW,332,0.6,9.6,58,0.00,,,0.00,WUHU21636XXSP,2013-11-08 17:51:00,
2013-11-08 12:56:00,47.3,32.7,29.82,NNW,337,7.3,12.3,57,0.00,,,0.00,WUHU21636XXSP,2013-11-08 17:56:00,
2013-11-08 13:01:00,46.8,32.2,29.82,NNW,337,6.0,13.1,57,0.00,,,0.00,WUHU21636XXSP,2013-11-08 18:01:00,
2013-11-08 13:06:00,46.4,31.8,29.82,NNW,337,1.7,13.1,57,0.00,,,0.00,WUHU21636XXSP,2013-11-08 18:06:00,
2013-11-08 13:11:00,46.2,32.5,29.82,NW,315,2.2,11.6,59,0.00,,,0.00,WUHU21636XXSP,2013-11-08 18:11:00,
2013-11-08 13:16:00,46.0,32.0,29.82,North,352,2.5,11.6,59,0.00,,,0.00,WUHU21636XXSP,2013-11-08 18:16:00,
2013-11-08 13:21:00,46.0,32.0,29.83,NNW,337,0.0,10.7,59,0.00,,,0.00,WUHU21636XXSP,2013-11-08 18:21:00,
2013-11-08 13:26:00,45.3,32.5,29.83,WNW,286,4.7,10.5,61,0.00,,,0.00,WUHU21636XXSP,2013-11-08 18:26:00,
2013-11-08 13:31:00,45.5,33.4,29.83,NW,315,0.0,10.5,63,0.00,,,0.00,WUHU21636XXSP,2013-11-08 18:31:00,
2013-11-08 13:36:00,47.3,34.9,29.83,NW,304,3.9,10.5,62,0.00,,,0.00,WUHU21636XXSP,2013-11-08 18:36:00,
2013-11-08 13:41:00,48.0,33.4,29.83,West,266,4.1,11.8,57,0.00,,,0.00,WUHU21636XXSP,2013-11-08 18:41:00,
2013-11-08 13:46:00,49.1,35.2,29.83,WSW,247,0.4,11.8,59,0.00,,,0.00,WUHU21636XXSP,2013-11-08 18:46:00,
2013-11-08 13:51:00,48.7,33.6,29.83,NNW,337,0.8,9.8,56,0.00,,,0.00,WUHU21636XXSP,2013-11-08 18:51:00,
2013-11-08 13:56:00,46.9,32.4,29.83,NNW,337,0.8,6.4,57,0.00,,,0.00,WUHU21636XXSP,2013-11-08 18:56:00,
2013-11-08 14:01:00,46.0,32.4,29.83,WNW,292,1.7,6.4,59,0.00,,,0.00,WUHU21636XXSP,2013-11-08 19:01:00,
2013-11-08 14:06:00,45.1,32.7,29.83,NW,315,0.0,1.7,62,0.00,,,0.00,WUHU21636XXSP,2013-11-08 19:06:00,
2013-11-08 14:11:00,44.8,32.2,29.83,WNW,292,3.8,3.8,61,0.00,,,0.00,WUHU21636XXSP,2013-11-08 19:11:00,
2013-11-08 14:16:00,46.2,33.8,29.84,WSW,247,1.5,3.8,62,0.00,,,0.00,WUHU21636XXSP,2013-11-08 19:16:00,
2013-11-08 14:21:00,46.2,32.5,29.83,NW,315,0.0,1.5,59,0.00,,,0.00,WUHU21636XXSP,2013-11-08 19:21:00,
2013-11-08 14:26:00,45.7,32.5,29.84,NNW,337,0.0,0.0,60,0.00,,,0.00,WUHU21636XXSP,2013-11-08 19:26:00,
2013-11-08 14:31:00,46.0,33.3,29.84,NW,315,0.0,0.0,61,0.00,,,0.00,WUHU21636XXSP,2013-11-08 19:31:00,
2013-11-08 14:36:00,46.9,32.4,29.84,WSW,247,3.1,3.1,57,0.00,,,0.00,WUHU21636XXSP,2013-11-08 19:36:00,
2013-11-08 14:41:00,47.1,32.0,29.84,WSW,247,3.1,8.9,56,0.00,,,0.00,WUHU21636XXSP,2013-11-08 19:41:00,
2013-11-08 14:46:00,48.2,33.6,29.84,WSW,247,2.8,11.1,57,0.00,,,0.00,WUHU21636XXSP,2013-11-08 19:46:00,
2013-11-08 14:51:00,49.1,33.4,29.84,WSW,247,4.0,11.1,55,0.00,,,0.00,WUHU21636XXSP,2013-11-08 19:51:00,
2013-11-08 14:56:00,48.4,31.5,29.85,WSW,247,0.8,10.7,52,0.00,,,0.00,WUHU21636XXSP,2013-11-08 19:56:00,
2013-11-08 15:01:00,47.5,32.4,29.85,WSW,247,4.6,7.1,56,0.00,,,0.00,WUHU21636XXSP,2013-11-08 20:01:00,
2013-11-08 15:06:00,47.5,32.0,29.86,NNW,342,3.8,12.0,55,0.00,,,0.00,WUHU21636XXSP,2013-11-08 20:06:00,
2013-11-08 15:11:00,46.9,31.5,29.85,NW,308,3.3,12.0,54,0.00,,,0.00,WUHU21636XXSP,2013-11-08 20:11:00,
2013-11-08 15:16:00,46.9,31.5,29.85,NW,315,1.5,11.1,54,0.00,,,0.00,WUHU21636XXSP,2013-11-08 20:16:00,
2013-11-08 15:21:00,46.2,30.7,29.86,NW,315,0.0,1.7,55,0.00,,,0.00,WUHU21636XXSP,2013-11-08 20:21:00,
2013-11-08 15:26:00,46.0,31.1,29.86,NW,324,0.8,6.2,56,0.00,,,0.00,WUHU21636XXSP,2013-11-08 20:26:00,
2013-11-08 15:31:00,46.0,32.0,29.86,NW,315,0.0,6.2,58,0.00,,,0.00,WUHU21636XXSP,2013-11-08 20:31:00,
2013-11-08 15:36:00,46.0,32.0,29.86,NW,315,1.7,1.7,57,0.00,,,0.00,WUHU21636XXSP,2013-11-08 20:36:00,
2013-11-08 15:41:00,46.6,32.0,29.86,NW,315,0.0,1.7,57,0.00,,,0.00,WUHU21636XXSP,2013-11-08 20:41:00,
2013-11-08 15:46:00,47.3,32.7,29.86,WSW,247,0.0,0.0,57,0.00,,,0.00,WUHU21636XXSP,2013-11-08 20:46:00,
2013-11-08 15:51:00,47.5,32.9,29.86,NW,315,0.0,0.0,57,0.00,,,0.00,WUHU21636XXSP,2013-11-08 20:51:00,
2013-11-08 15:56:00,46.9,32.4,29.86,WSW,247,0.0,0.0,57,0.00,,,0.00,WUHU21636XXSP,2013-11-08 20:56:00,
2013-11-08 16:01:00,46.6,31.5,29.86,NW,315,4.2,4.2,56,0.00,,,0.00,WUHU21636XXSP,2013-11-08 21:01:00,
2013-11-08 16:06:00,46.2,31.6,29.86,North,0,0.0,4.2,57,0.00,,,0.00,WUHU21636XXSP,2013-11-08 21:06:00,
2013-11-08 16:11:00,46.2,31.3,29.86,WNW,292,5.5,5.5,56,0.00,,,0.00,WUHU21636XXSP,2013-11-08 21:11:00,
2013-11-08 16:16:00,46.2,31.3,29.86,NNW,337,0.8,10.5,56,0.00,,,0.00,WUHU21636XXSP,2013-11-08 21:16:00,
2013-11-08 16:21:00,45.9,31.3,29.86,NW,315,0.0,10.5,57,0.00,,,0.00,WUHU21636XXSP,2013-11-08 21:21:00,
2013-11-08 16:26:00,45.5,31.1,29.87,NNW,337,2.6,2.6,57,0.00,,,0.00,WUHU21636XXSP,2013-11-08 21:26:00,
2013-11-08 16:31:00,45.5,31.1,29.87,NNW,337,0.0,2.6,58,0.00,,,0.00,WUHU21636XXSP,2013-11-08 21:31:00,
2013-11-08 16:36:00,45.1,30.7,29.87,NW,315,0.0,2.6,58,0.00,,,0.00,WUHU21636XXSP,2013-11-08 21:36:00,
2013-11-08 16:41:00,44.8,31.3,29.88,NNW,337,0.0,0.0,59,0.00,,,0.00,WUHU21636XXSP,2013-11-08 21:41:00,
2013-11-08 16:46:00,44.4,31.5,29.88,NNW,337,0.0,0.0,60,0.00,,,0.00,WUHU21636XXSP,2013-11-08 21:46:00,
2013-11-08 16:51:00,44.4,30.6,29.88,NW,315,0.0,0.0,60,0.00,,,0.00,WUHU21636XXSP,2013-11-08 21:51:00,
2013-11-08 16:56:00,44.4,30.6,29.88,NNW,337,0.0,0.0,60,0.00,,,0.00,WUHU21636XXSP,2013-11-08 21:56:00,
2013-11-08 17:01:00,44.2,30.4,29.88,WNW,292,0.0,0.0,58,0.00,,,0.00,WUHU21636XXSP,2013-11-08 22:01:00,
2013-11-08 17:06:00,43.9,29.5,29.88,NW,315,4.9,7.3,57,0.00,,,0.00,WUHU21636XXSP,2013-11-08 22:06:00,
2013-11-08 17:11:00,43.9,30.0,29.88,NNW,337,3.3,7.3,59,0.00,,,0.00,WUHU21636XXSP,2013-11-08 22:11:00,
2013-11-08 17:16:00,43.7,29.8,29.88,WNW,292,1.1,9.6,58,0.00,,,0.00,WUHU21636XXSP,2013-11-08 22:16:00,
2013-11-08 17:21:00,43.3,29.8,29.89,NW,315,0.0,9.6,59,0.00,,,0.00,WUHU21636XXSP,2013-11-08 22:21:00,
2013-11-08 17:26:00,43.2,30.2,29.89,NW,315,0.0,1.1,60,0.00,,,0.00,WUHU21636XXSP,2013-11-08 22:26:00,
2013-11-08 17:31:00,43.2,30.2,29.90,WNW,292,0.0,0.0,59,0.00,,,0.00,WUHU21636XXSP,2013-11-08 22:31:00,
2013-11-08 17:36:00,42.8,30.2,29.90,NW,315,0.0,1.3,61,0.00,,,0.00,WUHU21636XXSP,2013-11-08 22:36:00,
2013-11-08 17:41:00,42.4,30.2,29.90,NW,315,0.0,1.3,62,0.00,,,0.00,WUHU21636XXSP,2013-11-08 22:41:00,
2013-11-08 17:46:00,41.9,29.7,29.90,NW,315,0.0,0.0,62,0.00,,,0.00,WUHU21636XXSP,2013-11-08 22:46:00,
2013-11-08 17:51:00,41.4,30.0,29.90,NW,315,0.0,0.0,64,0.00,,,0.00,WUHU21636XXSP,2013-11-08 22:51:00,
2013-11-08 17:56:00,41.2,29.8,29.91,NW,315,0.0,0.0,65,0.00,,,0.00,WUHU21636XXSP,2013-11-08 22:56:00,
2013-11-08 18:01:00,40.8,29.8,29.91,NW,315,0.0,0.0,65,0.00,,,0.00,WUHU21636XXSP,2013-11-08 23:01:00,
2013-11-08 18:06:00,40.3,30.0,29.91,NW,315,0.0,0.0,67,0.00,,,0.00,WUHU21636XXSP,2013-11-08 23:06:00,
2013-11-08 18:11:00,40.1,29.8,29.91,NW,315,0.0,0.0,67,0.00,,,0.00,WUHU21636XXSP,2013-11-08 23:11:00,
2013-11-08 18:16:00,39.9,30.0,29.91,NW,315,0.0,0.0,69,0.00,,,0.00,WUHU21636XXSP,2013-11-08 23:16:00,
2013-11-08 18:21:00,40.1,30.2,29.92,NW,315,0.0,0.0,68,0.00,,,0.00,WUHU21636XXSP,2013-11-08 23:21:00,
2013-11-08 18:26:00,39.7,30.2,29.92,NW,315,0.0,0.0,69,0.00,,,0.00,WUHU21636XXSP,2013-11-08 23:26:00,
2013-11-08 18:31:00,39.6,30.0,29.93,NW,315,0.0,0.0,69,0.00,,,0.00,WUHU21636XXSP,2013-11-08 23:31:00,
2013-11-08 18:36:00,39.0,30.0,29.93,NW,315,0.0,0.0,70,0.00,,,0.00,WUHU21636XXSP,2013-11-08 23:36:00,
2013-11-08 18:41:00,38.8,30.2,29.93,NW,315,0.0,0.0,71,0.00,,,0.00,WUHU21636XXSP,2013-11-08 23:41:00,
2013-11-08 18:46:00,38.8,30.2,29.93,NW,315,0.0,0.0,71,0.00,,,0.00,WUHU21636XXSP,2013-11-08 23:46:00,
2013-11-08 18:51:00,38.8,30.2,29.94,NW,315,0.0,0.0,71,0.00,,,0.00,WUHU21636XXSP,2013-11-08 23:51:00,
2013-11-08 18:56:00,38.7,29.7,29.94,NW,315,0.0,0.0,70,0.00,,,0.00,WUHU21636XXSP,2013-11-08 23:56:00,
2013-11-08 19:01:00,38.5,29.5,29.94,NW,315,0.0,0.0,70,0.00,,,0.00,WUHU21636XXSP,2013-11-09 00:01:00,
2013-11-08 19:06:00,38.5,29.5,29.94,NW,315,0.0,0.0,70,0.00,,,0.00,WUHU21636XXSP,2013-11-09 00:06:00,
2013-11-08 19:11:00,38.3,29.3,29.94,NW,315,0.0,0.0,70,0.00,,,0.00,WUHU21636XXSP,2013-11-09 00:11:00,
2013-11-08 19:16:00,38.5,29.5,29.94,NW,315,0.0,0.0,70,0.00,,,0.00,WUHU21636XXSP,2013-11-09 00:16:00,
2013-11-08 19:21:00,38.3,29.3,29.94,NW,315,0.0,0.0,70,0.00,,,0.00,WUHU21636XXSP,2013-11-09 00:21:00,
2013-11-08 19:26:00,38.3,29.3,29.94,NW,315,0.0,0.0,70,0.00,,,0.00,WUHU21636XXSP,2013-11-09 00:26:00,
2013-11-08 19:31:00,38.1,29.1,29.94,NW,315,0.0,0.0,70,0.00,,,0.00,WUHU21636XXSP,2013-11-09 00:31:00,
2013-11-08 19:36:00,37.9,28.9,29.94,NW,315,0.0,0.0,70,0.00,,,0.00,WUHU21636XXSP,2013-11-09 00:36:00,
2013-11-08 19:41:00,37.8,28.8,29.94,NW,315,0.0,0.0,70,0.00,,,0.00,WUHU21636XXSP,2013-11-09 00:41:00,
2013-11-08 19:46:00,37.6,28.6,29.94,NW,315,0.0,0.0,70,0.00,,,0.00,WUHU21636XXSP,2013-11-09 00:46:00,
2013-11-08 19:51:00,37.6,28.6,29.94,NW,315,0.0,0.0,70,0.00,,,0.00,WUHU21636XXSP,2013-11-09 00:51:00,
2013-11-08 19:56:00,37.2,28.6,29.95,NW,315,0.0,0.0,71,0.00,,,0.00,WUHU21636XXSP,2013-11-09 00:56:00,
2013-11-08 20:01:00,37.4,28.8,29.95,NW,315,0.0,0.0,71,0.00,,,0.00,WUHU21636XXSP,2013-11-09 01:01:00,
2013-11-08 20:06:00,38.1,29.5,29.95,NW,315,0.0,0.0,71,0.00,,,0.00,WUHU21636XXSP,2013-11-09 01:06:00,
2013-11-08 20:11:00,38.3,29.7,29.95,NW,315,0.0,0.0,71,0.00,,,0.00,WUHU21636XXSP,2013-11-09 01:11:00,
2013-11-08 20:16:00,38.3,29.7,29.95,NW,315,0.0,0.0,71,0.00,,,0.00,WUHU21636XXSP,2013-11-09 01:16:00,
2013-11-08 20:21:00,38.5,29.8,29.95,NW,315,0.0,0.0,71,0.00,,,0.00,WUHU21636XXSP,2013-11-09 01:21:00,
2013-11-08 20:26:00,38.8,29.8,29.95,NW,315,0.0,0.0,70,0.00,,,0.00,WUHU21636XXSP,2013-11-09 01:26:00,
2013-11-08 20:31:00,38.8,29.8,29.95,NW,315,0.0,0.0,69,0.00,,,0.00,WUHU21636XXSP,2013-11-09 01:31:00,
2013-11-08 20:36:00,38.8,29.8,29.95,NW,315,0.0,0.0,70,0.00,,,0.00,WUHU21636XXSP,2013-11-09 01:36:00,
2013-11-08 20:41:00,38.8,29.8,29.96,NW,315,0.0,0.0,69,0.00,,,0.00,WUHU21636XXSP,2013-11-09 01:41:00,
2013-11-08 20:46:00,39.0,30.0,29.96,West,270,0.0,0.0,69,0.00,,,0.00,WUHU21636XXSP,2013-11-09 01:46:00,
2013-11-08 20:51:00,39.2,29.7,29.96,West,270,0.0,0.0,69,0.00,,,0.00,WUHU21636XXSP,2013-11-09 01:51:00,
2013-11-08 20:56:00,38.8,29.5,29.96,WNW,292,0.0,0.0,69,0.00,,,0.00,WUHU21636XXSP,2013-11-09 01:56:00,
2013-11-08 21:01:00,38.7,29.7,29.97,WNW,292,0.0,0.0,70,0.00,,,0.00,WUHU21636XXSP,2013-11-09 02:01:00,
2013-11-08 21:06:00,38.1,29.5,29.96,WNW,292,0.0,0.0,71,0.00,,,0.00,WUHU21636XXSP,2013-11-09 02:06:00,
2013-11-08 21:11:00,38.1,29.5,29.97,WNW,292,0.0,0.0,71,0.00,,,0.00,WUHU21636XXSP,2013-11-09 02:11:00,
2013-11-08 21:16:00,38.1,29.5,29.97,WNW,292,0.0,0.0,71,0.00,,,0.00,WUHU21636XXSP,2013-11-09 02:16:00,
2013-11-08 21:21:00,38.1,29.5,29.97,WNW,292,0.0,0.0,71,0.00,,,0.00,WUHU21636XXSP,2013-11-09 02:21:00,
2013-11-08 21:26:00,37.9,29.3,29.97,WNW,292,0.0,0.0,71,0.00,,,0.00,WUHU21636XXSP,2013-11-09 02:26:00,
2013-11-08 21:31:00,37.6,29.3,29.97,WNW,292,0.0,0.0,72,0.00,,,0.00,WUHU21636XXSP,2013-11-09 02:31:00,
2013-11-08 21:36:00,37.2,29.3,29.98,WNW,292,0.0,0.0,73,0.00,,,0.00,WUHU21636XXSP,2013-11-09 02:36:00,
2013-11-08 21:41:00,37.0,29.1,29.98,WNW,292,0.0,0.0,73,0.00,,,0.00,WUHU21636XXSP,2013-11-09 02:41:00,
2013-11-08 21:46:00,36.7,29.5,29.98,WNW,292,0.0,0.0,75,0.00,,,0.00,WUHU21636XXSP,2013-11-09 02:46:00,
2013-11-08 21:51:00,36.7,29.5,29.98,WNW,292,0.0,0.0,75,0.00,,,0.00,WUHU21636XXSP,2013-11-09 02:51:00,
2013-11-08 21:56:00,36.7,29.5,29.98,WNW,292,0.0,0.0,75,0.00,,,0.00,WUHU21636XXSP,2013-11-09 02:56:00,
2013-11-08 22:01:00,36.9,29.3,29.98,WNW,292,0.0,0.0,74,0.00,,,0.00,WUHU21636XXSP,2013-11-09 03:01:00,
2013-11-08 22:06:00,36.7,29.1,29.98,WNW,292,0.0,0.0,75,0.00,,,0.00,WUHU21636XXSP,2013-11-09 03:06:00,
2013-11-08 22:11:00,36.7,29.1,29.98,WNW,292,0.0,0.0,75,0.00,,,0.00,WUHU21636XXSP,2013-11-09 03:11:00,
2013-11-08 22:16:00,36.3,29.3,29.99,WNW,292,0.0,0.0,76,0.00,,,0.00,WUHU21636XXSP,2013-11-09 03:16:00,
2013-11-08 22:21:00,36.1,29.1,29.98,WNW,292,0.0,0.0,76,0.00,,,0.00,WUHU21636XXSP,2013-11-09 03:21:00,
2013-11-08 22:26:00,35.6,28.6,29.98,WNW,292,0.0,0.0,76,0.00,,,0.00,WUHU21636XXSP,2013-11-09 03:26:00,
2013-11-08 22:31:00,35.2,28.6,29.98,WNW,292,0.0,0.0,77,0.00,,,0.00,WUHU21636XXSP,2013-11-09 03:31:00,
2013-11-08 22:36:00,35.2,28.6,29.98,WNW,292,0.0,0.0,78,0.00,,,0.00,WUHU21636XXSP,2013-11-09 03:36:00,
2013-11-08 22:41:00,35.2,28.6,29.99,WNW,292,0.0,0.0,77,0.00,,,0.00,WUHU21636XXSP,2013-11-09 03:41:00,
2013-11-08 22:46:00,35.4,28.8,29.99,WNW,292,0.0,0.0,77,0.00,,,0.00,WUHU21636XXSP,2013-11-09 03:46:00,
2013-11-08 22:51:00,35.8,29.1,29.99,WNW,292,0.0,0.0,77,0.00,,,0.00,WUHU21636XXSP,2013-11-09 03:51:00,
2013-11-08 22:56:00,35.8,29.1,29.99,WNW,292,0.0,0.0,77,0.00,,,0.00,WUHU21636XXSP,2013-11-09 03:56:00,
2013-11-08 23:01:00,35.8,29.1,29.99,WNW,292,0.0,0.0,77,0.00,,,0.00,WUHU21636XXSP,2013-11-09 04:01:00,
2013-11-08 23:06:00,35.6,28.9,29.99,WNW,292,0.0,0.0,77,0.00,,,0.00,WUHU21636XXSP,2013-11-09 04:06:00,
2013-11-08 23:11:00,35.6,29.3,29.99,WNW,292,0.0,0.0,78,0.00,,,0.00,WUHU21636XXSP,2013-11-09 04:11:00,
2013-11-08 23:16:00,36.1,29.5,29.99,WNW,292,0.0,0.0,77,0.00,,,0.00,WUHU21636XXSP,2013-11-09 04:16:00,
2013-11-08 23:21:00,36.3,29.7,29.99,WNW,292,0.0,0.0,76,0.00,,,0.00,WUHU21636XXSP,2013-11-09 04:21:00,
2013-11-08 23:26:00,36.1,29.1,29.99,WNW,292,0.0,0.0,76,0.00,,,0.00,WUHU21636XXSP,2013-11-09 04:26:00,
2013-11-08 23:31:00,36.1,29.1,29.99,WNW,292,0.0,0.0,76,0.00,,,0.00,WUHU21636XXSP,2013-11-09 04:31:00,
2013-11-08 23:36:00,35.8,28.8,29.99,WNW,292,0.0,0.0,76,0.00,,,0.00,WUHU21636XXSP,2013-11-09 04:36:00,
2013-11-08 23:41:00,35.4,28.4,30.00,WNW,292,0.0,0.0,76,0.00,,,0.00,WUHU21636XXSP,2013-11-09 04:41:00,
2013-11-08 23:46:00,35.2,28.6,30.00,WNW,292,0.0,0.0,77,0.00,,,0.00,WUHU21636XXSP,2013-11-09 04:46:00,
2013-11-08 23:51:00,34.9,28.2,29.99,WNW,292,0.0,0.0,77,0.00,,,0.00,WUHU21636XXSP,2013-11-09 04:51:00,
2013-11-08 23:56:00,34.9,28.6,29.99,WNW,292,0.0,0.0,78,0.00,,,0.00,WUHU21636XXSP,2013-11-09 04:56:00,